Turks and Caicos Islands Weather

[source: ADDS]
METAR
MBPV 181000Z 1812/1912 09015KT 9999 SCT015 BECMG 1818/1820 11025KT MBGT 181000Z 1812/1912 09015KT 9999 SCT015 BECMG 1818/1820 11025KT TAF
MBPV 181000Z 1812/1912 09015KT 9999 SCT015 BECMG 1818/1820 11025KT =
MBGT 181000Z 1812/1912 09015KT 9999 SCT015 BECMG 1818/1820 11025KT =
SR / SS: 10:26 / 23:10 UTC (MBPV 2014-04-18)
E-mail Print PDF
Weather